createdAt,value
2022-10-26T00:01:21.539Z,9.74
2022-10-26T00:03:48.426Z,9.75
2022-10-26T00:06:20.624Z,9.74
2022-10-26T00:08:48.492Z,9.75
2022-10-26T00:11:16.100Z,9.76
2022-10-26T00:13:45.360Z,9.69
2022-10-26T00:16:14.049Z,9.59
2022-10-26T00:18:40.855Z,9.64
2022-10-26T00:21:09.429Z,9.64
2022-10-26T00:23:36.275Z,9.63
2022-10-26T00:26:03.704Z,9.59
2022-10-26T00:28:30.780Z,9.61
2022-10-26T00:31:04.454Z,9.58
2022-10-26T00:33:33.994Z,9.66
2022-10-26T00:36:00.851Z,9.66
2022-10-26T00:38:27.982Z,9.77
2022-10-26T00:40:54.711Z,9.82
2022-10-26T00:43:21.293Z,9.94
2022-10-26T00:45:50.944Z,9.94
2022-10-26T00:48:25.193Z,9.90
2022-10-26T00:50:54.405Z,9.94
2022-10-26T00:53:21.365Z,9.98
2022-10-26T00:55:50.894Z,9.99
2022-10-26T00:58:18.410Z,9.99
2022-10-26T01:00:45.304Z,10.07
2022-10-26T01:03:12.240Z,10.09
2022-10-26T01:05:42.139Z,10.09
2022-10-26T01:08:09.450Z,10.16
2022-10-26T01:10:38.756Z,10.16
2022-10-26T01:13:06.364Z,10.18
2022-10-26T01:16:25.874Z,10.19
2022-10-26T01:19:23.470Z,10.21
2022-10-26T01:22:00.444Z,10.22
2022-10-26T01:24:54.988Z,10.23
2022-10-26T01:27:44.964Z,10.23
2022-10-26T01:30:21.289Z,10.25
2022-10-26T01:32:55.022Z,10.27
2022-10-26T01:35:26.356Z,10.25
2022-10-26T01:38:26.454Z,10.14
2022-10-26T01:41:06.896Z,10.06
2022-10-26T01:43:37.838Z,10.04
2022-10-26T01:46:06.765Z,10.10
2022-10-26T01:48:35.105Z,10.06
2022-10-26T01:51:04.810Z,10.03
2022-10-26T01:53:31.447Z,9.98
2022-10-26T01:55:59.727Z,10.04
2022-10-26T01:58:36.651Z,10.08
2022-10-26T02:01:17.120Z,10.08
2022-10-26T02:04:31.149Z,10.03
2022-10-26T02:07:21.950Z,10.02
2022-10-26T02:09:54.831Z,10.07
2022-10-26T02:12:34.108Z,10.14
2022-10-26T02:15:11.185Z,10.16
2022-10-26T02:17:41.182Z,10.27
2022-10-26T02:20:13.977Z,10.40
2022-10-26T02:22:47.297Z,10.46
2022-10-26T02:25:44.296Z,10.48
2022-10-26T02:28:15.286Z,10.51
2022-10-26T02:30:43.932Z,10.46
2022-10-26T02:33:13.661Z,10.43
2022-10-26T02:35:43.352Z,10.42
2022-10-26T02:38:13.397Z,10.40
2022-10-26T02:40:41.878Z,10.44
2022-10-26T02:43:13.986Z,10.47
2022-10-26T02:45:48.115Z,10.43
2022-10-26T02:48:15.692Z,10.46
2022-10-26T02:51:11.652Z,10.43
2022-10-26T02:53:55.842Z,10.48
2022-10-26T02:56:31.001Z,10.48
2022-10-26T02:59:03.660Z,10.49
2022-10-26T03:01:34.182Z,10.44
2022-10-26T03:04:01.057Z,10.40
2022-10-26T03:06:27.760Z,10.32
2022-10-26T03:08:54.719Z,10.31
2022-10-26T03:11:21.287Z,10.30
2022-10-26T03:13:50.802Z,10.35
2022-10-26T03:16:17.618Z,10.44
2022-10-26T03:18:47.084Z,10.47
2022-10-26T03:21:13.826Z,10.54
2022-10-26T03:23:41.945Z,10.60
2022-10-26T03:26:11.294Z,10.64
2022-10-26T03:28:37.968Z,10.65
2022-10-26T03:31:04.692Z,10.69
2022-10-26T03:33:31.329Z,10.77
2022-10-26T03:36:00.217Z,10.80
2022-10-26T03:38:29.838Z,10.78
2022-10-26T03:40:56.585Z,10.78
2022-10-26T03:43:24.475Z,10.76
2022-10-26T03:45:51.169Z,10.76
2022-10-26T03:48:18.015Z,10.76
2022-10-26T03:50:44.801Z,10.75
2022-10-26T03:53:11.523Z,10.74
2022-10-26T03:55:38.345Z,10.70
2022-10-26T03:58:05.142Z,10.71
2022-10-26T04:00:32.073Z,10.71
2022-10-26T04:03:00.053Z,10.70
2022-10-26T04:05:28.553Z,10.69
2022-10-26T04:08:00.721Z,10.62
2022-10-26T04:10:27.997Z,10.57
2022-10-26T04:13:01.839Z,10.51
2022-10-26T04:15:29.248Z,10.55
2022-10-26T04:18:02.203Z,10.48
2022-10-26T04:20:30.405Z,10.36
2022-10-26T04:23:02.978Z,10.38
2022-10-26T04:25:33.059Z,10.32
2022-10-26T04:28:00.709Z,10.36
2022-10-26T04:30:27.453Z,10.41
2022-10-26T04:32:54.238Z,10.41
2022-10-26T04:35:21.235Z,10.47
2022-10-26T04:37:48.174Z,10.53
2022-10-26T04:40:18.124Z,10.59
2022-10-26T04:42:48.391Z,10.62
2022-10-26T04:45:16.030Z,10.57
2022-10-26T04:47:43.612Z,10.62
2022-10-26T04:50:12.505Z,10.55
2022-10-26T04:52:39.678Z,10.62
2022-10-26T04:55:07.798Z,10.68
2022-10-26T04:57:37.616Z,10.70
2022-10-26T05:00:05.277Z,10.62
2022-10-26T05:02:42.046Z,10.71
2022-10-26T05:05:11.327Z,10.71
2022-10-26T05:07:40.992Z,10.69
2022-10-26T05:10:08.452Z,10.69
2022-10-26T05:12:35.013Z,10.67
2022-10-26T05:15:03.954Z,10.71
2022-10-26T05:17:33.015Z,10.83
2022-10-26T05:20:00.462Z,10.75
2022-10-26T05:22:27.434Z,10.74
2022-10-26T05:24:53.967Z,10.74
2022-10-26T05:27:20.723Z,10.81
2022-10-26T05:29:47.183Z,10.81
2022-10-26T05:32:13.793Z,10.82
2022-10-26T05:34:41.558Z,10.87
2022-10-26T05:37:08.227Z,10.91
2022-10-26T05:39:34.673Z,10.90
2022-10-26T05:42:01.122Z,10.92
2022-10-26T05:44:27.619Z,11.02
2022-10-26T05:46:54.239Z,11.00
2022-10-26T05:49:20.738Z,11.08
2022-10-26T05:51:47.167Z,11.05
2022-10-26T05:54:14.134Z,11.08
2022-10-26T05:56:41.839Z,11.03
2022-10-26T05:59:13.871Z,11.09
2022-10-26T06:01:55.652Z,11.11
2022-10-26T06:04:47.814Z,11.15
2022-10-26T06:07:20.779Z,11.15
2022-10-26T06:09:48.158Z,11.21
2022-10-26T06:12:18.505Z,11.20
2022-10-26T06:14:46.826Z,11.15
2022-10-26T06:17:35.099Z,11.27
2022-10-26T06:20:22.246Z,11.18
2022-10-26T06:23:05.519Z,11.20
2022-10-26T06:25:55.006Z,11.22
2022-10-26T06:28:37.274Z,11.24
2022-10-26T06:31:04.265Z,11.27
2022-10-26T06:33:31.651Z,11.34
2022-10-26T06:36:10.758Z,11.45
2022-10-26T06:38:39.868Z,11.39
2022-10-26T06:41:06.884Z,11.41
2022-10-26T06:43:35.891Z,11.40
2022-10-26T06:46:14.506Z,11.40
2022-10-26T06:48:52.698Z,11.49
2022-10-26T06:51:20.262Z,11.49
2022-10-26T06:53:57.071Z,11.67
2022-10-26T06:56:24.654Z,11.69
2022-10-26T06:58:54.470Z,11.71
2022-10-26T07:01:21.096Z,11.80
2022-10-26T07:03:47.607Z,11.81
2022-10-26T07:08:45.964Z,11.77
2022-10-26T07:11:12.586Z,11.78
2022-10-26T07:13:39.207Z,11.85
2022-10-26T07:16:05.947Z,11.98
2022-10-26T07:18:32.554Z,12.08
2022-10-26T07:20:59.807Z,12.16
2022-10-26T07:23:26.460Z,12.26
2022-10-26T07:25:53.078Z,12.33
2022-10-26T07:28:19.555Z,12.47
2022-10-26T07:30:46.004Z,12.51
2022-10-26T07:33:14.444Z,12.60
2022-10-26T07:35:41.111Z,12.63
2022-10-26T07:38:08.218Z,12.70
2022-10-26T07:40:36.884Z,12.86
2022-10-26T07:43:03.739Z,12.97
2022-10-26T07:45:30.717Z,13.13
2022-10-26T07:47:57.504Z,13.18
2022-10-26T07:50:24.684Z,13.22
2022-10-26T07:52:51.565Z,13.21
2022-10-26T07:55:19.043Z,13.24
2022-10-26T07:57:46.756Z,13.28
2022-10-26T08:00:16.411Z,13.28
2022-10-26T08:02:43.058Z,13.35
2022-10-26T08:05:09.527Z,13.28
2022-10-26T08:07:41.071Z,13.32
2022-10-26T08:10:08.087Z,13.29
2022-10-26T08:12:34.734Z,13.29
2022-10-26T08:15:01.160Z,13.33
2022-10-26T08:17:28.999Z,13.35
2022-10-26T08:19:55.663Z,13.37
2022-10-26T08:22:22.107Z,13.52
2022-10-26T08:24:48.591Z,13.50
2022-10-26T08:27:15.408Z,13.63
2022-10-26T08:29:42.351Z,13.70
2022-10-26T08:32:08.979Z,13.77
2022-10-26T08:34:35.422Z,13.84
2022-10-26T08:37:02.237Z,13.92
2022-10-26T08:39:30.704Z,14.04
2022-10-26T08:42:16.847Z,14.18
2022-10-26T08:44:48.079Z,14.21
2022-10-26T08:47:19.561Z,14.30
2022-10-26T08:49:55.249Z,14.43
2022-10-26T08:52:33.097Z,14.55
2022-10-26T08:55:02.686Z,14.53
2022-10-26T08:57:38.110Z,14.60
2022-10-26T09:00:07.606Z,14.64
2022-10-26T09:02:34.316Z,14.62
2022-10-26T09:05:01.626Z,14.63
2022-10-26T09:07:42.815Z,14.51
2022-10-26T09:13:13.412Z,14.63
2022-10-26T09:16:00.159Z,14.62
2022-10-26T09:19:04.563Z,14.81
2022-10-26T09:21:33.992Z,14.91
2022-10-26T09:24:05.473Z,14.94
2022-10-26T09:26:41.908Z,14.94
2022-10-26T09:29:13.914Z,14.95
2022-10-26T09:31:44.822Z,15.02
2022-10-26T09:34:20.602Z,15.19
2022-10-26T09:36:53.383Z,15.31
2022-10-26T09:39:42.133Z,15.32
2022-10-26T09:42:49.284Z,15.56
2022-10-26T09:45:22.595Z,15.73
2022-10-26T09:47:52.941Z,16.08
2022-10-26T09:50:40.439Z,16.48
2022-10-26T09:53:06.911Z,16.71
2022-10-26T09:55:40.484Z,16.84
2022-10-26T09:58:14.510Z,16.88
2022-10-26T10:00:42.723Z,17.07
2022-10-26T10:03:29.888Z,16.94
2022-10-26T10:06:21.303Z,16.71
2022-10-26T10:09:24.598Z,16.47
2022-10-26T10:11:56.321Z,16.29
2022-10-26T10:14:34.645Z,16.30
2022-10-26T10:17:19.441Z,16.20
2022-10-26T10:19:46.411Z,16.15
2022-10-26T10:22:23.896Z,16.18
2022-10-26T10:25:01.218Z,16.23
2022-10-26T10:27:29.966Z,16.25
2022-10-26T10:30:03.038Z,16.30
2022-10-26T10:32:35.640Z,16.40
2022-10-26T10:35:23.464Z,16.48
2022-10-26T10:37:51.733Z,16.56
2022-10-26T10:40:24.654Z,16.62
2022-10-26T10:42:53.703Z,16.79
2022-10-26T10:45:30.657Z,16.98
2022-10-26T10:48:13.969Z,16.97
2022-10-26T10:50:53.374Z,16.85
2022-10-26T10:53:30.467Z,16.84
2022-10-26T10:56:21.684Z,16.81
2022-10-26T10:59:26.989Z,16.77
2022-10-26T11:02:01.176Z,16.73
2022-10-26T11:04:27.675Z,16.79
2022-10-26T11:06:59.474Z,16.84
2022-10-26T11:09:29.348Z,16.94
2022-10-26T11:12:03.902Z,16.96
2022-10-26T11:14:39.120Z,16.96
2022-10-26T11:17:24.377Z,16.97
2022-10-26T11:20:02.418Z,16.93
2022-10-26T11:22:37.040Z,16.99
2022-10-26T11:25:07.457Z,16.93
2022-10-26T11:27:42.220Z,16.99
2022-10-26T11:30:25.530Z,17.06
2022-10-26T11:33:03.750Z,17.03
2022-10-26T11:35:36.686Z,17.04
2022-10-26T11:38:16.081Z,17.02
2022-10-26T11:41:10.350Z,17.01
2022-10-26T11:43:45.876Z,17.09
2022-10-26T11:46:24.327Z,17.08
2022-10-26T11:49:11.040Z,17.01
2022-10-26T11:51:52.658Z,17.02
2022-10-26T11:54:35.986Z,17.08
2022-10-26T11:57:04.942Z,17.11
2022-10-26T11:59:37.392Z,17.14
2022-10-26T12:02:17.805Z,17.11
2022-10-26T12:04:50.125Z,17.16
2022-10-26T12:07:26.595Z,17.17
2022-10-26T12:09:54.694Z,17.19
2022-10-26T12:12:33.832Z,17.23
2022-10-26T12:15:24.816Z,17.26
2022-10-26T12:18:54.590Z,17.27
2022-10-26T12:21:26.010Z,17.37
2022-10-26T12:24:02.954Z,17.42
2022-10-26T12:26:29.403Z,17.42
2022-10-26T12:29:01.986Z,17.50
2022-10-26T12:31:37.778Z,17.53
2022-10-26T12:34:13.259Z,17.63
2022-10-26T12:36:48.500Z,17.67
2022-10-26T12:39:33.504Z,17.64
2022-10-26T12:42:06.010Z,17.62
2022-10-26T12:45:00.042Z,17.67
2022-10-26T12:47:32.563Z,17.73
2022-10-26T12:50:01.641Z,17.76
2022-10-26T12:52:51.500Z,17.93
2022-10-26T12:55:38.872Z,18.27
2022-10-26T12:58:43.235Z,18.40
2022-10-26T13:01:30.976Z,18.88
2022-10-26T13:04:13.059Z,19.16
2022-10-26T13:06:45.679Z,19.51
2022-10-26T13:09:24.879Z,19.71
2022-10-26T13:11:55.291Z,19.81
2022-10-26T13:14:26.175Z,19.80
2022-10-26T13:16:52.979Z,19.62
2022-10-26T13:19:47.345Z,19.43
2022-10-26T13:22:21.698Z,19.25
2022-10-26T13:25:01.795Z,19.15
2022-10-26T13:27:41.763Z,19.06
2022-10-26T13:30:20.864Z,18.95
2022-10-26T13:32:54.569Z,18.94
2022-10-26T13:35:24.141Z,18.91
2022-10-26T13:37:54.375Z,18.91
2022-10-26T13:40:25.237Z,18.85
2022-10-26T13:42:57.560Z,18.73
2022-10-26T13:45:54.545Z,18.62
2022-10-26T13:48:33.715Z,18.49
2022-10-26T13:51:03.976Z,18.42
2022-10-26T13:53:35.447Z,18.36
2022-10-26T13:56:17.611Z,18.27
2022-10-26T13:58:59.049Z,18.18
2022-10-26T14:01:26.722Z,18.16
2022-10-26T14:03:53.511Z,18.14
2022-10-26T14:06:23.911Z,18.11
2022-10-26T14:08:52.944Z,18.21
2022-10-26T14:11:23.124Z,18.19
2022-10-26T14:13:50.806Z,18.30
2022-10-26T14:16:20.232Z,18.34
2022-10-26T14:18:48.768Z,18.31
2022-10-26T14:21:22.891Z,18.19
2022-10-26T14:23:52.826Z,18.16
2022-10-26T14:26:27.923Z,18.09
2022-10-26T14:28:57.652Z,18.06
2022-10-26T14:31:32.382Z,18.16
2022-10-26T14:34:01.573Z,18.18
2022-10-26T14:36:55.247Z,18.31
2022-10-26T14:39:45.336Z,18.33
2022-10-26T14:42:34.216Z,18.23
2022-10-26T14:45:01.755Z,18.07
2022-10-26T14:47:30.869Z,17.98
2022-10-26T14:52:35.612Z,17.85
2022-10-26T14:55:13.395Z,17.82
2022-10-26T14:57:42.609Z,17.77
2022-10-26T15:00:17.817Z,17.86
2022-10-26T15:02:47.751Z,17.82
2022-10-26T15:05:35.744Z,17.86
2022-10-26T15:08:03.258Z,17.83
2022-10-26T15:10:47.070Z,17.84
2022-10-26T15:13:31.669Z,17.82
2022-10-26T15:16:09.551Z,17.81
2022-10-26T15:18:38.416Z,17.81
2022-10-26T15:21:22.481Z,17.70
2022-10-26T15:23:50.439Z,17.65
2022-10-26T15:26:17.194Z,17.63
2022-10-26T15:28:44.551Z,17.59
2022-10-26T15:31:10.979Z,17.56
2022-10-26T15:34:00.488Z,17.58
2022-10-26T15:36:27.499Z,17.66
2022-10-26T15:38:55.479Z,17.66
2022-10-26T15:41:40.043Z,17.71
2022-10-26T15:44:16.062Z,17.69
2022-10-26T15:46:43.986Z,17.65
2022-10-26T15:49:17.023Z,17.58
2022-10-26T15:51:45.634Z,17.54
2022-10-26T15:54:12.449Z,17.51
2022-10-26T15:56:39.730Z,17.43
2022-10-26T15:59:14.754Z,17.31
2022-10-26T16:01:41.393Z,17.20
2022-10-26T16:04:10.807Z,17.13
2022-10-26T16:06:39.877Z,17.06
2022-10-26T16:09:10.465Z,17.04
2022-10-26T16:11:36.951Z,16.97
2022-10-26T16:14:04.072Z,16.92
2022-10-26T16:16:30.803Z,16.98
2022-10-26T16:19:11.713Z,16.91
2022-10-26T16:21:43.865Z,16.87
2022-10-26T16:24:10.847Z,16.85
2022-10-26T16:26:37.420Z,16.85
2022-10-26T16:29:03.883Z,16.80
2022-10-26T16:31:30.349Z,16.77
2022-10-26T16:34:00.307Z,16.73
2022-10-26T16:36:29.735Z,16.68
2022-10-26T16:38:56.238Z,16.62
2022-10-26T16:41:22.740Z,16.61
2022-10-26T16:43:49.201Z,16.58
2022-10-26T16:46:20.943Z,16.53
2022-10-26T16:48:48.700Z,16.52
2022-10-26T16:51:17.695Z,16.51
2022-10-26T16:53:46.835Z,16.48
2022-10-26T16:56:17.143Z,16.58
2022-10-26T16:58:43.677Z,16.58
2022-10-26T17:01:12.967Z,16.55
2022-10-26T17:03:39.906Z,16.53
2022-10-26T17:06:07.731Z,16.49
2022-10-26T17:08:36.695Z,16.40
2022-10-26T17:11:12.126Z,16.40
2022-10-26T17:13:40.119Z,16.39
2022-10-26T17:16:10.569Z,16.27
2022-10-26T17:18:38.445Z,16.12
2022-10-26T17:21:05.060Z,16.06
2022-10-26T17:23:31.601Z,15.98
2022-10-26T17:26:06.267Z,15.83
2022-10-26T17:28:33.280Z,15.74
2022-10-26T17:31:08.094Z,15.66
2022-10-26T17:33:36.262Z,15.57
2022-10-26T17:36:04.320Z,15.52
2022-10-26T17:38:35.836Z,15.48
2022-10-26T17:41:08.383Z,15.43
2022-10-26T17:43:37.816Z,15.37
2022-10-26T17:46:26.197Z,15.28
2022-10-26T17:48:58.532Z,15.20
2022-10-26T17:51:26.286Z,15.13
2022-10-26T17:53:52.839Z,15.14
2022-10-26T17:56:22.521Z,15.15
2022-10-26T17:58:54.367Z,15.09
2022-10-26T18:01:21.406Z,15.08
2022-10-26T18:03:48.190Z,15.06
2022-10-26T18:06:17.123Z,15.05
2022-10-26T18:08:44.628Z,15.05
2022-10-26T18:11:14.946Z,14.94
2022-10-26T18:13:41.456Z,14.86
2022-10-26T18:16:10.586Z,14.93
2022-10-26T18:18:40.983Z,14.89
2022-10-26T18:21:08.823Z,14.76
2022-10-26T18:23:36.376Z,14.68
2022-10-26T18:26:11.141Z,14.58
2022-10-26T18:28:39.934Z,14.49
2022-10-26T18:31:08.659Z,14.38
2022-10-26T18:33:35.725Z,14.44
2022-10-26T18:36:13.981Z,14.42
2022-10-26T18:38:40.629Z,14.33
2022-10-26T18:41:09.999Z,14.32
2022-10-26T18:43:40.684Z,14.36
2022-10-26T18:46:18.972Z,14.38
2022-10-26T18:48:48.126Z,14.25
2022-10-26T18:51:17.599Z,14.28
2022-10-26T18:53:45.188Z,14.20
2022-10-26T18:56:14.650Z,14.23
2022-10-26T18:58:43.365Z,14.11
2022-10-26T19:01:13.187Z,14.11
2022-10-26T19:03:40.377Z,14.10
2022-10-26T19:06:17.796Z,13.95
2022-10-26T19:08:45.323Z,13.94
2022-10-26T19:11:17.211Z,14.02
2022-10-26T19:13:44.336Z,14.08
2022-10-26T19:16:33.229Z,14.07
2022-10-26T19:19:03.244Z,14.00
2022-10-26T19:21:29.883Z,13.88
2022-10-26T19:23:58.663Z,13.82
2022-10-26T19:26:33.618Z,13.73
2022-10-26T19:29:06.903Z,13.66
2022-10-26T19:31:35.575Z,13.59
2022-10-26T19:34:02.704Z,13.52
2022-10-26T19:36:30.088Z,13.46
2022-10-26T19:38:56.689Z,13.40
2022-10-26T19:41:26.410Z,13.34
2022-10-26T19:43:54.224Z,13.31
2022-10-26T19:46:23.556Z,13.42
2022-10-26T19:48:51.929Z,13.35
2022-10-26T19:51:18.679Z,13.29
2022-10-26T19:53:45.423Z,13.29
2022-10-26T19:56:13.440Z,13.30
2022-10-26T19:58:44.399Z,13.39
2022-10-26T20:01:13.843Z,13.33
2022-10-26T20:03:41.027Z,13.24
2022-10-26T20:06:12.727Z,13.18
2022-10-26T20:08:44.415Z,13.14
2022-10-26T20:11:15.463Z,13.04
2022-10-26T20:13:43.882Z,12.96
2022-10-26T20:16:12.183Z,12.90
2022-10-26T20:18:41.269Z,12.85
2022-10-26T20:21:13.887Z,12.84
2022-10-26T20:23:40.664Z,12.86
2022-10-26T20:26:07.312Z,12.87
2022-10-26T20:28:33.863Z,12.95
2022-10-26T20:31:00.508Z,12.95
2022-10-26T20:33:27.577Z,12.95
2022-10-26T20:35:58.612Z,12.88
2022-10-26T20:38:26.443Z,12.84
2022-10-26T20:40:58.245Z,12.79
2022-10-26T20:43:26.775Z,12.74
2022-10-26T20:45:54.075Z,12.70
2022-10-26T20:48:21.319Z,12.63
2022-10-26T20:50:55.019Z,12.66
2022-10-26T20:53:33.839Z,12.61
2022-10-26T20:56:03.572Z,12.56
2022-10-26T20:58:49.337Z,12.60
2022-10-26T21:01:24.122Z,12.52
2022-10-26T21:03:51.840Z,12.44
2022-10-26T21:06:18.633Z,12.42
2022-10-26T21:08:45.331Z,12.37
2022-10-26T21:11:11.945Z,12.32
2022-10-26T21:13:38.401Z,12.27
2022-10-26T21:16:06.528Z,12.36
2022-10-26T21:18:33.556Z,12.32
2022-10-26T21:21:00.617Z,12.24
2022-10-26T21:23:39.962Z,12.19
2022-10-26T21:26:07.115Z,12.16
2022-10-26T21:28:41.583Z,12.27
2022-10-26T21:31:11.053Z,12.21
2022-10-26T21:33:37.706Z,12.15
2022-10-26T21:36:07.323Z,12.23
2022-10-26T21:38:34.760Z,12.18
2022-10-26T21:41:05.570Z,12.18
2022-10-26T21:43:33.607Z,12.24
2022-10-26T21:46:03.396Z,12.19
2022-10-26T21:48:31.145Z,12.20
2022-10-26T21:50:58.285Z,12.19
2022-10-26T21:53:26.902Z,12.12
2022-10-26T21:56:04.030Z,12.10
2022-10-26T21:58:30.840Z,12.07
2022-10-26T22:01:08.906Z,11.98
2022-10-26T22:03:36.327Z,11.90
2022-10-26T22:06:03.616Z,11.93
2022-10-26T22:08:30.458Z,11.89
2022-10-26T22:10:57.398Z,11.82
2022-10-26T22:13:24.461Z,11.75
2022-10-26T22:16:15.153Z,11.67
2022-10-26T22:18:43.169Z,11.62
2022-10-26T22:21:11.005Z,11.60
2022-10-26T22:23:39.774Z,11.55
2022-10-26T22:26:12.022Z,11.52
2022-10-26T22:28:42.654Z,11.45
2022-10-26T22:31:15.714Z,11.46
2022-10-26T22:33:42.922Z,11.45
2022-10-26T22:36:14.775Z,11.40
2022-10-26T22:38:42.167Z,11.38
2022-10-26T22:41:09.596Z,11.37
2022-10-26T22:43:36.349Z,11.34
2022-10-26T22:46:05.563Z,11.29
2022-10-26T22:48:34.733Z,11.25
2022-10-26T22:51:21.352Z,11.21
2022-10-26T22:53:53.007Z,11.25
2022-10-26T22:56:19.946Z,11.23
2022-10-26T22:58:47.025Z,11.20
2022-10-26T23:01:16.391Z,11.18
2022-10-26T23:03:43.560Z,11.17
2022-10-26T23:06:14.321Z,11.13
2022-10-26T23:08:41.120Z,11.17
2022-10-26T23:11:09.932Z,11.11
2022-10-26T23:13:36.490Z,11.07
2022-10-26T23:16:07.598Z,11.08
2022-10-26T23:18:34.883Z,11.14
2022-10-26T23:21:02.005Z,11.09
2022-10-26T23:23:28.520Z,11.09
2022-10-26T23:25:59.140Z,11.11
2022-10-26T23:28:25.615Z,11.03
2022-10-26T23:30:52.049Z,11.02
2022-10-26T23:33:18.480Z,11.02
2022-10-26T23:35:44.991Z,11.07
2022-10-26T23:38:11.489Z,11.04
2022-10-26T23:40:38.012Z,11.00
2022-10-26T23:43:04.481Z,10.94
2022-10-26T23:45:30.935Z,11.00
2022-10-26T23:47:57.391Z,10.98
2022-10-26T23:50:24.022Z,10.96
2022-10-26T23:52:50.691Z,10.90
2022-10-26T23:55:17.218Z,10.91
2022-10-26T23:57:43.791Z,10.93
